logo
Search for airport 
image banner adimage banner adimage banner ad
image banner ad

EYUT - Utena

Located in Utena, Lithuania

ICAO - EYUT, IATA -

Data provided by Airmate  

General information

Coordinates: N55°29'21" E25°43'5"
Elevation is 633 feet MSL.
Magnetic variation is 7° East
View others Airports in Utena County

Operational data

Special qualification required
Current time UTC:
Current local time:
Weather at : - ( 0 km )
METAR: PAHX 170602Z AUTO 15008KT 10SM BKN050 BKN060 03/M02 A3012 RMK AO2 SLP201 T00331022 10050 20033 53004
View NOTAMs / SUP AIP / TFR affecting this airport [VIEW]
Communications frequencies: [VIEW]

Runways:

RWY identifierQFULength (ft)Width (ft)SurfaceLDA (ft)
11121°1870131GRASS
29301°1870131GRASS

Airport contact information

Address: Utena Lithuania

Satellite view of EYUT